createdAt,value
2017-06-09T00:00:04.312Z,1010.89
2017-06-09T00:01:13.667Z,1010.85
2017-06-09T00:02:22.711Z,1010.88
2017-06-09T00:03:31.670Z,1010.88
2017-06-09T00:04:40.634Z,1010.89
2017-06-09T00:05:49.596Z,1010.9
2017-06-09T00:07:00.200Z,1010.89
2017-06-09T00:08:15.731Z,1010.89
2017-06-09T00:09:33.048Z,1010.89
2017-06-09T00:10:43.141Z,1010.85
2017-06-09T00:11:52.192Z,1010.88
2017-06-09T00:13:01.403Z,1010.89
2017-06-09T00:14:10.366Z,1010.85
2017-06-09T00:15:19.868Z,1010.88
2017-06-09T00:16:28.830Z,1010.84
2017-06-09T00:17:38.103Z,1010.85
2017-06-09T00:18:47.059Z,1010.77
2017-06-09T00:19:56.103Z,1010.8
2017-06-09T00:21:05.074Z,1010.77
2017-06-09T00:22:14.372Z,1010.78
2017-06-09T00:23:23.674Z,1010.78
2017-06-09T00:24:32.636Z,1010.75
2017-06-09T00:25:41.601Z,1010.79
2017-06-09T00:26:50.642Z,1010.81
2017-06-09T00:27:59.604Z,1010.76
2017-06-09T00:29:08.890Z,1010.79
2017-06-09T00:30:17.931Z,1010.81
2017-06-09T00:31:26.939Z,1010.78
2017-06-09T00:32:36.003Z,1010.75
2017-06-09T00:33:45.043Z,1010.81
2017-06-09T00:34:54.260Z,1010.77
2017-06-09T00:36:03.263Z,1010.75
2017-06-09T00:37:12.227Z,1010.76
2017-06-09T00:38:21.271Z,1010.73
2017-06-09T00:39:30.231Z,1010.74
2017-06-09T00:40:39.575Z,1010.72
2017-06-09T00:41:48.607Z,1010.71
2017-06-09T00:42:57.693Z,1010.71
2017-06-09T00:44:06.652Z,1010.65
2017-06-09T00:45:15.689Z,1010.67
2017-06-09T00:46:24.894Z,1010.64
2017-06-09T00:47:33.935Z,1010.66
2017-06-09T00:48:43.000Z,1010.68
2017-06-09T00:49:51.997Z,1010.59
2017-06-09T00:51:01.202Z,1010.61
2017-06-09T00:52:10.490Z,1010.57
2017-06-09T00:53:19.613Z,1010.6
2017-06-09T00:54:28.878Z,1010.58
2017-06-09T00:55:39.093Z,1010.58
2017-06-09T00:56:48.060Z,1010.58
2017-06-09T00:57:57.834Z,1010.58
2017-06-09T00:59:06.832Z,1010.55
2017-06-09T01:00:15.871Z,1010.54
2017-06-09T01:01:24.833Z,1010.48
2017-06-09T01:02:33.868Z,1010.5
2017-06-09T01:03:43.301Z,1010.47
2017-06-09T01:04:52.257Z,1010.47
2017-06-09T01:06:01.301Z,1010.43
2017-06-09T01:07:10.270Z,1010.43
2017-06-09T01:08:19.698Z,1010.45
2017-06-09T01:09:29.031Z,1010.41
2017-06-09T01:10:37.994Z,1010.37
2017-06-09T01:11:46.960Z,1010.38
2017-06-09T01:12:55.927Z,1010.36
2017-06-09T01:14:04.884Z,1010.32
2017-06-09T01:15:14.181Z,1010.35
2017-06-09T01:16:23.227Z,1010.34
2017-06-09T01:17:32.185Z,1010.33
2017-06-09T01:18:41.237Z,1010.32
2017-06-09T01:19:50.195Z,1010.28
2017-06-09T01:20:59.457Z,1010.29
2017-06-09T01:22:08.417Z,1010.26
2017-06-09T01:23:17.873Z,1010.25
2017-06-09T01:24:28.215Z,1010.19
2017-06-09T01:25:38.936Z,1010.22
2017-06-09T01:26:49.617Z,1010.23
2017-06-09T01:28:02.015Z,1010.14
2017-06-09T01:29:14.031Z,1010.15
2017-06-09T01:30:23.062Z,1010.09
2017-06-09T01:31:32.784Z,1010.07
2017-06-09T01:32:44.964Z,1010.09
2017-06-09T01:33:56.770Z,1010.06
2017-06-09T01:35:08.073Z,1010.05
2017-06-09T01:36:17.404Z,1010.09
2017-06-09T01:37:26.785Z,1010.04
2017-06-09T01:38:36.187Z,1010
2017-06-09T01:39:46.667Z,1009.98
2017-06-09T01:40:59.612Z,1009.94
2017-06-09T01:42:08.661Z,1009.97
2017-06-09T01:43:20.430Z,1009.95
2017-06-09T01:44:30.355Z,1009.93
2017-06-09T01:45:39.318Z,1009.94
2017-06-09T01:46:48.281Z,1009.93
2017-06-09T01:47:57.242Z,1009.9
2017-06-09T01:49:06.232Z,1009.92
2017-06-09T01:50:15.442Z,1009.92
2017-06-09T01:51:24.400Z,1009.93
2017-06-09T01:52:33.365Z,1009.88
2017-06-09T01:53:42.323Z,1009.91
2017-06-09T01:54:51.280Z,1009.85
2017-06-09T01:56:00.487Z,1009.82
2017-06-09T01:57:09.445Z,1009.83
2017-06-09T01:58:18.491Z,1009.81
2017-06-09T01:59:27.449Z,1009.79
2017-06-09T02:00:36.411Z,1009.7
2017-06-09T02:01:45.620Z,1009.77
2017-06-09T02:02:54.586Z,1009.76
2017-06-09T02:04:03.549Z,1009.76
2017-06-09T02:05:12.503Z,1009.77
2017-06-09T02:06:21.784Z,1009.73
2017-06-09T02:07:30.997Z,1009.73
2017-06-09T02:08:40.047Z,1009.7
2017-06-09T02:09:49.015Z,1009.69
2017-06-09T02:10:57.976Z,1009.68
2017-06-09T02:12:06.928Z,1009.73
2017-06-09T02:13:16.138Z,1009.68
2017-06-09T02:14:25.093Z,1009.68
2017-06-09T02:15:34.047Z,1009.62
2017-06-09T02:16:43.005Z,1009.68
2017-06-09T02:17:52.001Z,1009.66
2017-06-09T02:19:01.210Z,1009.6
2017-06-09T02:20:10.173Z,1009.59
2017-06-09T02:21:19.135Z,1009.57
2017-06-09T02:22:28.096Z,1009.58
2017-06-09T02:23:37.052Z,1009.61
2017-06-09T02:24:46.272Z,1009.62
2017-06-09T02:25:55.227Z,1009.66
2017-06-09T02:27:04.186Z,1009.65
2017-06-09T02:28:13.141Z,1009.64
2017-06-09T02:29:22.097Z,1009.62
2017-06-09T02:30:31.391Z,1009.59
2017-06-09T02:31:40.344Z,1009.6
2017-06-09T02:32:49.406Z,1009.58
2017-06-09T02:33:58.453Z,1009.59
2017-06-09T02:35:07.415Z,1009.6
2017-06-09T02:36:16.716Z,1009.61
2017-06-09T02:37:25.675Z,1009.59
2017-06-09T02:38:34.638Z,1009.57
2017-06-09T02:39:43.605Z,1009.57
2017-06-09T02:40:52.572Z,1009.59
2017-06-09T02:42:01.831Z,1009.6
2017-06-09T02:43:10.792Z,1009.57
2017-06-09T02:44:19.754Z,1009.59
2017-06-09T02:45:28.717Z,1009.58
2017-06-09T02:46:37.678Z,1009.62
2017-06-09T02:47:46.894Z,1009.58
2017-06-09T02:48:55.858Z,1009.6
2017-06-09T02:50:04.813Z,1009.6
2017-06-09T02:51:13.772Z,1009.59
2017-06-09T02:52:22.821Z,1009.58
2017-06-09T02:53:32.028Z,1009.62
2017-06-09T02:54:40.985Z,1009.59
2017-06-09T02:55:50.034Z,1009.56
2017-06-09T02:56:59.076Z,1009.59
2017-06-09T02:58:08.035Z,1009.53
2017-06-09T02:59:17.244Z,1009.54
2017-06-09T03:00:26.200Z,1009.55
2017-06-09T03:01:35.155Z,1009.58
2017-06-09T03:02:44.203Z,1009.54
2017-06-09T03:03:53.166Z,1009.53
2017-06-09T03:05:02.374Z,1009.53
2017-06-09T03:06:11.340Z,1009.55
2017-06-09T03:07:20.306Z,1009.53
2017-06-09T03:08:29.271Z,1009.54
2017-06-09T03:09:38.246Z,1009.56
2017-06-09T03:10:47.954Z,1009.57
2017-06-09T03:11:56.919Z,1009.57
2017-06-09T03:13:05.914Z,1009.63
2017-06-09T03:14:14.871Z,1009.65
2017-06-09T03:15:23.828Z,1009.66
2017-06-09T03:16:33.036Z,1009.71
2017-06-09T03:17:41.994Z,1009.74
2017-06-09T03:18:50.952Z,1009.75
2017-06-09T03:19:59.913Z,1009.78
2017-06-09T03:21:08.869Z,1009.78
2017-06-09T03:22:18.075Z,1009.81
2017-06-09T03:23:27.034Z,1009.83
2017-06-09T03:24:35.991Z,1009.84
2017-06-09T03:25:44.984Z,1009.89
2017-06-09T03:26:53.953Z,1009.87
2017-06-09T03:28:03.165Z,1009.88
2017-06-09T03:29:12.125Z,1009.92
2017-06-09T03:30:21.081Z,1009.95
2017-06-09T03:31:30.036Z,1010.01
2017-06-09T03:32:39.038Z,1009.99
2017-06-09T03:33:48.247Z,1010.01
2017-06-09T03:34:57.295Z,1010.03
2017-06-09T03:36:06.582Z,1010.01
2017-06-09T03:37:15.546Z,1009.98
2017-06-09T03:38:24.501Z,1009.94
2017-06-09T03:39:33.711Z,1009.9
2017-06-09T03:40:43.006Z,1009.92
2017-06-09T03:41:51.967Z,1009.91
2017-06-09T03:43:00.927Z,1009.93
2017-06-09T03:44:09.891Z,1009.91
2017-06-09T03:45:19.100Z,1009.85
2017-06-09T03:46:28.061Z,1009.91
2017-06-09T03:47:37.017Z,1009.84
2017-06-09T03:48:45.972Z,1009.88
2017-06-09T03:49:54.929Z,1009.88
2017-06-09T03:51:04.185Z,1009.89
2017-06-09T03:52:13.229Z,1009.86
2017-06-09T03:53:25.221Z,1009.88
2017-06-09T03:54:34.179Z,1009.85
2017-06-09T03:55:43.136Z,1009.8
2017-06-09T03:56:52.394Z,1009.86
2017-06-09T03:58:01.447Z,1009.91
2017-06-09T03:59:10.411Z,1009.91
2017-06-09T04:00:19.371Z,1009.92
2017-06-09T04:01:28.330Z,1009.95
2017-06-09T04:02:37.540Z,1009.91
2017-06-09T04:03:46.493Z,1009.91
2017-06-09T04:04:55.478Z,1009.93
2017-06-09T04:06:04.439Z,1009.96
2017-06-09T04:07:13.402Z,1009.94
2017-06-09T04:08:22.609Z,1009.93
2017-06-09T04:09:31.570Z,1009.96
2017-06-09T04:10:40.863Z,1009.95
2017-06-09T04:11:49.822Z,1009.95
2017-06-09T04:12:58.781Z,1009.89
2017-06-09T04:14:08.039Z,1009.92
2017-06-09T04:15:17.323Z,1009.93
2017-06-09T04:16:26.281Z,1009.95
2017-06-09T04:17:35.283Z,1009.95
2017-06-09T04:18:44.249Z,1010
2017-06-09T04:19:53.457Z,1010.01
2017-06-09T04:21:02.428Z,1009.99
2017-06-09T04:22:11.714Z,1010.01
2017-06-09T04:23:20.673Z,1010.03
2017-06-09T04:24:29.640Z,1010.02
2017-06-09T04:25:38.901Z,1010.06
2017-06-09T04:26:47.867Z,1010.11
2017-06-09T04:27:56.829Z,1010.14
2017-06-09T04:29:05.816Z,1010.11
2017-06-09T04:30:14.774Z,1010.08
2017-06-09T04:31:23.983Z,1010.04
2017-06-09T04:32:32.945Z,1010.03
2017-06-09T04:33:41.898Z,1009.99
2017-06-09T04:34:50.863Z,1009.98
2017-06-09T04:35:59.822Z,1009.98
2017-06-09T04:37:09.027Z,1009.96
2017-06-09T04:38:17.987Z,1009.93
2017-06-09T04:39:26.945Z,1009.94
2017-06-09T04:40:35.899Z,1009.95
2017-06-09T04:41:44.859Z,1009.91
2017-06-09T04:42:54.065Z,1009.9
2017-06-09T04:44:03.026Z,1009.89
2017-06-09T04:45:11.981Z,1009.88
2017-06-09T04:46:20.936Z,1009.84
2017-06-09T04:47:30.224Z,1009.82
2017-06-09T04:48:39.434Z,1009.77
2017-06-09T04:49:48.392Z,1009.74
2017-06-09T04:50:57.348Z,1009.7
2017-06-09T04:52:06.305Z,1009.76
2017-06-09T04:53:15.266Z,1009.72
2017-06-09T04:54:24.534Z,1009.76
2017-06-09T04:55:33.490Z,1009.79
2017-06-09T04:56:42.453Z,1009.74
2017-06-09T04:57:51.503Z,1009.73
2017-06-09T04:59:00.463Z,1009.7
2017-06-09T05:00:09.671Z,1009.68
2017-06-09T05:01:18.628Z,1009.66
2017-06-09T05:02:27.586Z,1009.63
2017-06-09T05:03:36.540Z,1009.6
2017-06-09T05:04:45.585Z,1009.62
2017-06-09T05:05:54.848Z,1009.54
2017-06-09T05:07:03.806Z,1009.55
2017-06-09T05:08:12.854Z,1009.53
2017-06-09T05:09:21.811Z,1009.52
2017-06-09T05:10:30.778Z,1009.58
2017-06-09T05:11:40.037Z,1009.58
2017-06-09T05:12:48.992Z,1009.54
2017-06-09T05:13:57.950Z,1009.54
2017-06-09T05:15:06.910Z,1009.51
2017-06-09T05:16:15.865Z,1009.48
2017-06-09T05:17:25.124Z,1009.47
2017-06-09T05:18:34.080Z,1009.48
2017-06-09T05:19:43.038Z,1009.49
2017-06-09T05:20:52.001Z,1009.54
2017-06-09T05:22:00.963Z,1009.52
2017-06-09T05:23:10.177Z,1009.55
2017-06-09T05:24:19.138Z,1009.55
2017-06-09T05:25:28.095Z,1009.54
2017-06-09T05:26:37.112Z,1009.58
2017-06-09T05:27:46.395Z,1009.57
2017-06-09T05:28:55.605Z,1009.61
2017-06-09T05:30:04.559Z,1009.6
2017-06-09T05:31:13.523Z,1009.59
2017-06-09T05:32:22.486Z,1009.6
2017-06-09T05:33:31.446Z,1009.63
2017-06-09T05:34:40.656Z,1009.63
2017-06-09T05:35:49.619Z,1009.64
2017-06-09T05:36:58.580Z,1009.7
2017-06-09T05:38:07.537Z,1009.71
2017-06-09T05:39:16.497Z,1009.7
2017-06-09T05:40:25.699Z,1009.67
2017-06-09T05:41:34.657Z,1009.67
2017-06-09T05:42:43.615Z,1009.64
2017-06-09T05:43:52.578Z,1009.65
2017-06-09T05:45:01.538Z,1009.66
2017-06-09T05:46:10.751Z,1009.62
2017-06-09T05:47:19.711Z,1009.67
2017-06-09T05:48:28.668Z,1009.72
2017-06-09T05:49:37.630Z,1009.67
2017-06-09T05:50:46.678Z,1009.66
2017-06-09T05:51:55.973Z,1009.65
2017-06-09T05:53:04.935Z,1009.63
2017-06-09T05:54:13.979Z,1009.62
2017-06-09T05:55:22.938Z,1009.62
2017-06-09T05:56:31.899Z,1009.62
2017-06-09T05:57:41.244Z,1009.69
2017-06-09T05:58:50.565Z,1009.67
2017-06-09T05:59:59.526Z,1009.73
2017-06-09T06:01:08.819Z,1009.78
2017-06-09T06:02:17.868Z,1009.79
2017-06-09T06:03:27.080Z,1009.81
2017-06-09T06:04:36.039Z,1009.81
2017-06-09T06:05:44.994Z,1009.83
2017-06-09T06:06:53.954Z,1009.82
2017-06-09T06:08:02.998Z,1009.84
2017-06-09T06:09:12.218Z,1009.88
2017-06-09T06:10:21.262Z,1009.89
2017-06-09T06:11:30.221Z,1009.88
2017-06-09T06:12:39.180Z,1009.87
2017-06-09T06:13:48.153Z,1009.83
2017-06-09T06:14:57.370Z,1009.81
2017-06-09T06:16:06.331Z,1009.81
2017-06-09T06:17:15.293Z,1009.8
2017-06-09T06:18:24.253Z,1009.82
2017-06-09T06:19:33.296Z,1009.82
2017-06-09T06:20:42.504Z,1009.84
2017-06-09T06:21:51.473Z,1009.9
2017-06-09T06:23:00.437Z,1009.87
2017-06-09T06:24:09.718Z,1009.87
2017-06-09T06:25:18.679Z,1009.84
2017-06-09T06:26:27.926Z,1009.84
2017-06-09T06:27:36.886Z,1009.81
2017-06-09T06:28:45.848Z,1009.75
2017-06-09T06:29:54.844Z,1009.78
2017-06-09T06:31:03.836Z,1009.77
2017-06-09T06:32:13.052Z,1009.77
2017-06-09T06:33:22.010Z,1009.77
2017-06-09T06:34:30.967Z,1009.74
2017-06-09T06:35:39.927Z,1009.76
2017-06-09T06:36:48.889Z,1009.71
2017-06-09T06:37:58.187Z,1009.72
2017-06-09T06:39:07.145Z,1009.69
2017-06-09T06:40:16.105Z,1009.69
2017-06-09T06:41:25.066Z,1009.71
2017-06-09T06:42:34.029Z,1009.72
2017-06-09T06:43:43.002Z,1009.68
2017-06-09T06:44:51.963Z,1009.68
2017-06-09T06:46:00.921Z,1009.61
2017-06-09T06:47:09.923Z,1009.61
2017-06-09T06:48:19.295Z,1009.62
2017-06-09T06:49:28.253Z,1009.63
2017-06-09T06:50:37.213Z,1009.63
2017-06-09T06:51:46.183Z,1009.63
2017-06-09T06:52:55.144Z,1009.63
2017-06-09T06:54:04.110Z,1009.57
2017-06-09T06:55:13.120Z,1009.59
2017-06-09T06:56:22.080Z,1009.59
2017-06-09T06:57:31.045Z,1009.69
2017-06-09T06:58:40.007Z,1009.66
2017-06-09T06:59:49.291Z,1009.7
2017-06-09T07:00:58.618Z,1009.65
2017-06-09T07:02:07.583Z,1009.7
2017-06-09T07:03:16.548Z,1009.7
2017-06-09T07:04:25.510Z,1009.63
2017-06-09T07:05:34.468Z,1009.67
2017-06-09T07:06:43.435Z,1009.67
2017-06-09T07:07:52.398Z,1009.69
2017-06-09T07:09:01.361Z,1009.68
2017-06-09T07:10:10.328Z,1009.73
2017-06-09T07:11:19.290Z,1009.72
2017-06-09T07:12:28.572Z,1009.73
2017-06-09T07:13:37.534Z,1009.7
2017-06-09T07:14:46.720Z,1009.69
2017-06-09T07:15:56.869Z,1009.69
2017-06-09T07:17:06.144Z,1009.7
2017-06-09T07:18:15.404Z,1009.67
2017-06-09T07:19:24.367Z,1009.67
2017-06-09T07:20:33.328Z,1009.63
2017-06-09T07:21:42.320Z,1009.63
2017-06-09T07:22:51.281Z,1009.6
2017-06-09T07:24:00.627Z,1009.62
2017-06-09T07:25:10.212Z,1009.58
2017-06-09T07:26:19.197Z,1009.56
2017-06-09T07:27:28.169Z,1009.56
2017-06-09T07:28:37.128Z,1009.53
2017-06-09T07:29:46.337Z,1009.52
2017-06-09T07:30:55.299Z,1009.51
2017-06-09T07:32:05.080Z,1009.48
2017-06-09T07:33:14.040Z,1009.47
2017-06-09T07:34:23.003Z,1009.44
2017-06-09T07:35:32.317Z,1009.45
2017-06-09T07:36:43.058Z,1009.42
2017-06-09T07:38:05.672Z,1009.42
2017-06-09T07:39:15.788Z,1009.43
2017-06-09T07:40:26.395Z,1009.37
2017-06-09T07:41:35.725Z,1009.4
2017-06-09T07:42:44.691Z,1009.29
2017-06-09T07:43:53.652Z,1009.28
2017-06-09T07:45:02.618Z,1009.28
2017-06-09T07:46:11.887Z,1009.26
2017-06-09T07:47:20.851Z,1009.22
2017-06-09T07:48:29.818Z,1009.21
2017-06-09T07:49:39.142Z,1009.15
2017-06-09T07:50:48.107Z,1009.12
2017-06-09T07:51:57.641Z,1009.1
2017-06-09T07:53:06.604Z,1009.06
2017-06-09T07:54:15.565Z,1009.06
2017-06-09T07:55:24.525Z,1009.01
2017-06-09T07:56:33.489Z,1009.05
2017-06-09T07:57:42.811Z,1009.04
2017-06-09T07:58:52.062Z,1009.01
2017-06-09T08:00:01.353Z,1009.04
2017-06-09T08:01:10.341Z,1009.07
2017-06-09T08:02:19.303Z,1009.04
2017-06-09T08:03:28.512Z,1009.02
2017-06-09T08:04:37.471Z,1009
2017-06-09T08:05:46.507Z,1009.11
2017-06-09T08:06:55.471Z,1009.11
2017-06-09T08:08:04.432Z,1009.08
2017-06-09T08:09:13.725Z,1009.19
2017-06-09T08:10:22.806Z,1009.16
2017-06-09T08:11:31.766Z,1009.11
2017-06-09T08:12:40.827Z,1009.13
2017-06-09T08:13:49.791Z,1009.15
2017-06-09T08:14:59.076Z,1009.11
2017-06-09T08:16:08.042Z,1009.15
2017-06-09T08:17:17.331Z,1009.15
2017-06-09T08:18:26.336Z,1009.14
2017-06-09T08:19:35.302Z,1009.12
2017-06-09T08:20:44.513Z,1009.11
2017-06-09T08:21:53.490Z,1009.12
2017-06-09T08:23:02.449Z,1009.08
2017-06-09T08:24:11.409Z,1009.05
2017-06-09T08:25:20.369Z,1009.06
2017-06-09T08:26:29.726Z,1009.1
2017-06-09T08:27:39.615Z,1009.07
2017-06-09T08:28:48.591Z,1009.05
2017-06-09T08:29:57.576Z,1009.08
2017-06-09T08:31:06.651Z,1009.05
2017-06-09T08:32:15.910Z,1009.03
2017-06-09T08:33:25.265Z,1009.03
2017-06-09T08:34:34.227Z,1009.04
2017-06-09T08:35:43.512Z,1009.02
2017-06-09T08:36:52.476Z,1008.99
2017-06-09T08:38:01.747Z,1009.05
2017-06-09T08:39:10.711Z,1008.99
2017-06-09T08:40:19.671Z,1008.96
2017-06-09T08:41:28.633Z,1008.96
2017-06-09T08:42:37.595Z,1008.99
2017-06-09T08:43:46.857Z,1008.95
2017-06-09T08:44:55.821Z,1008.96
2017-06-09T08:46:04.789Z,1008.96
2017-06-09T08:47:13.745Z,1008.98
2017-06-09T08:48:22.725Z,1008.95
2017-06-09T08:49:32.080Z,1009.01
2017-06-09T08:50:41.043Z,1008.94
2017-06-09T08:51:50.005Z,1008.92
2017-06-09T08:52:59.015Z,1008.92
2017-06-09T08:54:08.142Z,1008.89
2017-06-09T08:55:18.731Z,1008.93
2017-06-09T08:56:27.691Z,1008.89
2017-06-09T08:57:36.657Z,1008.91
2017-06-09T08:58:45.705Z,1008.92
2017-06-09T08:59:55.182Z,1008.9
2017-06-09T09:01:05.284Z,1008.94
2017-06-09T09:02:14.517Z,1008.86
2017-06-09T09:03:23.570Z,1008.87
2017-06-09T09:04:32.631Z,1008.82
2017-06-09T09:05:41.926Z,1008.89
2017-06-09T09:06:51.340Z,1008.88
2017-06-09T09:08:00.516Z,1008.94
2017-06-09T09:09:09.648Z,1008.88
2017-06-09T09:10:18.810Z,1008.88
2017-06-09T09:11:27.771Z,1008.86
2017-06-09T09:12:37.214Z,1008.78
2017-06-09T09:13:46.172Z,1008.79
2017-06-09T09:14:55.220Z,1008.9
2017-06-09T09:16:04.190Z,1008.8
2017-06-09T09:17:13.157Z,1008.84
2017-06-09T09:18:22.469Z,1008.81
2017-06-09T09:19:31.429Z,1008.82
2017-06-09T09:20:40.393Z,1008.81
2017-06-09T09:21:49.355Z,1008.69
2017-06-09T09:22:58.343Z,1008.76
2017-06-09T09:24:07.621Z,1008.73
2017-06-09T09:25:16.625Z,1008.68
2017-06-09T09:26:25.833Z,1008.74
2017-06-09T09:27:34.795Z,1008.73
2017-06-09T09:28:43.755Z,1008.75
2017-06-09T09:29:52.971Z,1008.73
2017-06-09T09:31:01.932Z,1008.69
2017-06-09T09:32:10.897Z,1008.66
2017-06-09T09:33:19.859Z,1008.67
2017-06-09T09:34:29.139Z,1008.68
2017-06-09T09:35:38.719Z,1008.6
2017-06-09T09:36:47.821Z,1008.65
2017-06-09T09:37:56.870Z,1008.67
2017-06-09T09:39:06.003Z,1008.62
2017-06-09T09:40:15.423Z,1008.65
2017-06-09T09:41:25.233Z,1008.58
2017-06-09T09:42:34.330Z,1008.54
2017-06-09T09:43:43.290Z,1008.48
2017-06-09T09:44:52.252Z,1008.54
2017-06-09T09:46:01.335Z,1008.51
2017-06-09T09:47:10.662Z,1008.44
2017-06-09T09:48:19.654Z,1008.44
2017-06-09T09:49:28.695Z,1008.43
2017-06-09T09:50:37.730Z,1008.4
2017-06-09T09:51:46.822Z,1008.42
2017-06-09T09:52:56.069Z,1008.39
2017-06-09T09:54:05.037Z,1008.33
2017-06-09T09:55:14.336Z,1008.39
2017-06-09T09:56:23.468Z,1008.37
2017-06-09T09:57:32.430Z,1008.36
2017-06-09T09:58:41.775Z,1008.36
2017-06-09T09:59:50.816Z,1008.34
2017-06-09T10:00:59.781Z,1008.31
2017-06-09T10:02:08.817Z,1008.29
2017-06-09T10:03:18.392Z,1008.27
2017-06-09T10:04:27.990Z,1008.27
2017-06-09T10:05:37.218Z,1008.28
2017-06-09T10:06:46.185Z,1008.36
2017-06-09T10:07:55.155Z,1008.27
2017-06-09T10:09:04.814Z,1008.29
2017-06-09T10:10:14.031Z,1008.2
2017-06-09T10:11:23.022Z,1008.26
2017-06-09T10:12:32.665Z,1008.19
2017-06-09T10:13:41.650Z,1008.15
2017-06-09T10:14:50.614Z,1008.17
2017-06-09T10:15:59.835Z,1008.23
2017-06-09T10:17:08.805Z,1008.22
2017-06-09T10:18:18.250Z,1008.11
2017-06-09T10:19:27.463Z,1008.13
2017-06-09T10:20:36.432Z,1008.07
2017-06-09T10:21:46.536Z,1008.05
2017-06-09T10:22:56.168Z,1007.99
2017-06-09T10:24:05.537Z,1007.96
2017-06-09T10:25:14.503Z,1007.97
2017-06-09T10:26:23.554Z,1007.92
2017-06-09T10:27:32.787Z,1007.93
2017-06-09T10:28:41.768Z,1007.88
2017-06-09T10:29:51.424Z,1007.91
2017-06-09T10:31:01.163Z,1007.94
2017-06-09T10:32:10.145Z,1007.91
2017-06-09T10:33:19.529Z,1007.86
2017-06-09T10:34:29.162Z,1007.92
2017-06-09T10:35:38.801Z,1007.88
2017-06-09T10:36:47.772Z,1007.92
2017-06-09T10:37:56.739Z,1007.87
2017-06-09T10:39:06.014Z,1007.86
2017-06-09T10:40:14.992Z,1007.85
2017-06-09T10:41:23.957Z,1007.93
2017-06-09T10:42:32.922Z,1007.86
2017-06-09T10:43:41.888Z,1007.82
2017-06-09T10:44:51.238Z,1007.84
2017-06-09T10:46:00.206Z,1007.82
2017-06-09T10:47:09.179Z,1007.77
2017-06-09T10:48:18.316Z,1007.76
2017-06-09T10:49:27.277Z,1007.7
2017-06-09T10:50:36.497Z,1007.71
2017-06-09T10:51:45.461Z,1007.71
2017-06-09T10:52:56.157Z,1007.7
2017-06-09T10:54:05.227Z,1007.61
2017-06-09T10:55:14.187Z,1007.69
2017-06-09T10:56:23.396Z,1007.62
2017-06-09T10:57:32.365Z,1007.7
2017-06-09T10:58:41.329Z,1007.65
2017-06-09T10:59:50.322Z,1007.51
2017-06-09T11:00:59.796Z,1007.51
2017-06-09T11:02:09.635Z,1007.56
2017-06-09T11:03:19.330Z,1007.55
2017-06-09T11:04:28.305Z,1007.48
2017-06-09T11:05:37.767Z,1007.47
2017-06-09T11:06:47.431Z,1007.44
2017-06-09T11:07:57.324Z,1007.47
2017-06-09T11:09:07.136Z,1007.49
2017-06-09T11:10:16.109Z,1007.49
2017-06-09T11:11:25.080Z,1007.39
2017-06-09T11:12:34.045Z,1007.41
2017-06-09T11:13:43.259Z,1007.44
2017-06-09T11:14:52.223Z,1007.39
2017-06-09T11:16:01.185Z,1007.42
2017-06-09T11:17:10.172Z,1007.41
2017-06-09T11:18:19.146Z,1007.36
2017-06-09T11:19:28.564Z,1007.31
2017-06-09T11:20:37.532Z,1007.33
2017-06-09T11:21:46.497Z,1007.28
2017-06-09T11:22:55.460Z,1007.32
2017-06-09T11:24:04.513Z,1007.27
2017-06-09T11:25:13.823Z,1007.26
2017-06-09T11:26:22.826Z,1007.18
2017-06-09T11:27:31.865Z,1007.14
2017-06-09T11:28:40.923Z,1007.24
2017-06-09T11:29:49.892Z,1007.19
2017-06-09T11:30:59.231Z,1007.15
2017-06-09T11:32:08.253Z,1007.21
2017-06-09T11:33:17.216Z,1007.16
2017-06-09T11:34:26.177Z,1007.23
2017-06-09T11:35:35.361Z,1007.14
2017-06-09T11:36:44.625Z,1007.13
2017-06-09T11:37:53.686Z,1007.1
2017-06-09T11:39:03.397Z,1007.17
2017-06-09T11:40:14.045Z,1007.06
2017-06-09T11:41:23.008Z,1007.08
2017-06-09T11:42:32.273Z,1007.06
2017-06-09T11:43:41.275Z,1006.99
2017-06-09T11:44:50.297Z,1007.07
2017-06-09T11:45:59.546Z,1007
2017-06-09T11:47:09.012Z,1007.01
2017-06-09T11:48:18.279Z,1007.02
2017-06-09T11:49:27.270Z,1007.07
2017-06-09T11:50:37.068Z,1006.92
2017-06-09T11:51:46.029Z,1006.91
2017-06-09T11:52:54.991Z,1006.95
2017-06-09T11:54:04.256Z,1006.96
2017-06-09T11:55:13.219Z,1006.9
2017-06-09T11:56:22.183Z,1006.88
2017-06-09T11:57:31.143Z,1006.85
2017-06-09T11:58:40.111Z,1006.8
2017-06-09T11:59:49.382Z,1006.78
2017-06-09T12:00:58.392Z,1006.8
2017-06-09T12:02:07.485Z,1006.78
2017-06-09T12:03:16.856Z,1006.72
2017-06-09T12:04:25.822Z,1006.66
2017-06-09T12:05:35.082Z,1006.76
2017-06-09T12:06:44.206Z,1006.74
2017-06-09T12:07:53.218Z,1006.73
2017-06-09T12:09:02.224Z,1006.72
2017-06-09T12:10:11.239Z,1006.76
2017-06-09T12:11:20.457Z,1006.73
2017-06-09T12:12:29.427Z,1006.73
2017-06-09T12:13:38.410Z,1006.71
2017-06-09T12:14:47.371Z,1006.82
2017-06-09T12:15:56.332Z,1006.72
2017-06-09T12:17:05.585Z,1006.68
2017-06-09T12:18:14.814Z,1006.7
2017-06-09T12:19:23.864Z,1006.68
2017-06-09T12:20:32.919Z,1006.66
2017-06-09T12:21:41.888Z,1006.67
2017-06-09T12:22:51.121Z,1006.73
2017-06-09T12:24:00.110Z,1006.66
2017-06-09T12:25:09.090Z,1006.66
2017-06-09T12:26:18.144Z,1006.62
2017-06-09T12:27:27.114Z,1006.61
2017-06-09T12:28:36.416Z,1006.61
2017-06-09T12:29:45.831Z,1006.58
2017-06-09T12:30:54.856Z,1006.56
2017-06-09T12:32:03.948Z,1006.61
2017-06-09T12:33:12.928Z,1006.54
2017-06-09T12:34:22.140Z,1006.57
2017-06-09T12:35:31.143Z,1006.58
2017-06-09T12:36:40.118Z,1006.46
2017-06-09T12:37:49.110Z,1006.49
2017-06-09T12:38:58.085Z,1006.46
2017-06-09T12:40:07.306Z,1006.51
2017-06-09T12:41:16.517Z,1006.59
2017-06-09T12:42:26.148Z,1006.5
2017-06-09T12:43:35.728Z,1006.55
2017-06-09T12:44:44.692Z,1006.52
2017-06-09T12:45:53.908Z,1006.46
2017-06-09T12:47:02.874Z,1006.43
2017-06-09T12:48:11.851Z,1006.52
2017-06-09T12:49:20.822Z,1006.52
2017-06-09T12:50:29.783Z,1006.48
2017-06-09T12:51:39.040Z,1006.46
2017-06-09T12:52:48.005Z,1006.55
2017-06-09T12:53:56.967Z,1006.49
2017-06-09T12:55:05.936Z,1006.47
2017-06-09T12:56:14.898Z,1006.45
2017-06-09T12:57:24.113Z,1006.5
2017-06-09T12:58:33.079Z,1006.52
2017-06-09T12:59:42.041Z,1006.48
2017-06-09T13:00:51.002Z,1006.52
2017-06-09T13:01:59.964Z,1006.5
2017-06-09T13:03:09.175Z,1006.47
2017-06-09T13:04:18.462Z,1006.47
2017-06-09T13:05:27.425Z,1006.39
2017-06-09T13:06:36.411Z,1006.4
2017-06-09T13:07:45.370Z,1006.43
2017-06-09T13:08:54.639Z,1006.48
2017-06-09T13:10:03.601Z,1006.39
2017-06-09T13:11:12.564Z,1006.4
2017-06-09T13:12:21.567Z,1006.4
2017-06-09T13:13:30.571Z,1006.43
2017-06-09T13:14:39.793Z,1006.47
2017-06-09T13:15:48.753Z,1006.41
2017-06-09T13:16:57.718Z,1006.39
2017-06-09T13:18:06.685Z,1006.39
2017-06-09T13:19:15.653Z,1006.36
2017-06-09T13:20:24.865Z,1006.39
2017-06-09T13:21:33.856Z,1006.38
2017-06-09T13:22:42.824Z,1006.32
2017-06-09T13:23:51.802Z,1006.3
2017-06-09T13:25:01.153Z,1006.23
2017-06-09T13:26:11.248Z,1006.47
2017-06-09T13:27:20.874Z,1006.27
2017-06-09T13:28:30.463Z,1006.23
2017-06-09T13:29:39.434Z,1006.18
2017-06-09T13:30:49.047Z,1006.18
2017-06-09T13:31:58.984Z,1006.11
2017-06-09T13:33:07.950Z,1006.15
2017-06-09T13:34:17.138Z,1006.08
2017-06-09T13:35:27.110Z,1006.15
2017-06-09T13:36:36.521Z,1006.05
2017-06-09T13:37:46.064Z,1006.09
2017-06-09T13:38:55.221Z,1006.06
2017-06-09T13:40:04.869Z,1006.11
2017-06-09T13:41:14.486Z,1006.1
2017-06-09T13:42:23.802Z,1006.07
2017-06-09T13:43:34.057Z,1006.11
2017-06-09T13:44:43.674Z,1006.09
2017-06-09T13:45:53.320Z,1006.02
2017-06-09T13:47:02.281Z,1006.07
2017-06-09T13:48:11.872Z,1006
2017-06-09T13:49:21.136Z,1006.07
2017-06-09T13:50:30.100Z,1006.09
2017-06-09T13:51:39.323Z,1006.05
2017-06-09T13:52:48.993Z,1006.03
2017-06-09T13:53:57.982Z,1006.07
2017-06-09T13:55:07.475Z,1005.99
2017-06-09T13:56:16.528Z,1006.01
2017-06-09T13:57:25.495Z,1006.01
2017-06-09T13:58:34.471Z,1006.04